Terminal Aerodrome Forecast
Issued by NWS Blacksburg, VA

Current Version | Previous Version | Graphics & Text | Print | Product List | Glossary On
Versions: 1 2 3 4 5 6 7 8 9 10 11 12 13 14 15 16
000
FTUS41 KRNK 230701 AAA
TAFBLF
TAF AMD
KBLF 230701Z 2307/2406 33007KT P6SM VCSH OVC005
     FM230800 34007KT P6SM OVC015
      TEMPO 2308/2312 4SM -RA BR OVC004
     FM231500 32010KT P6SM OVC012
     FM232100 29006KT P6SM BKN010
     FM240300 31004KT P6SM SCT020=

USA.gov is the U.S. government's official web portal to all federal, state and local government web resources and services.